sensor_id;sensor_type;location;lat;lon;timestamp;P1;durP1;ratioP1;P2;durP2;ratioP2
21012;SDS011;10664;53.582;9.712;2023-02-28T00:00:17;2.50;;;1.97;;
21012;SDS011;10664;53.582;9.712;2023-02-28T00:02:43;2.30;;;2.10;;
21012;SDS011;10664;53.582;9.712;2023-02-28T00:05:10;3.27;;;2.13;;
21012;SDS011;10664;53.582;9.712;2023-02-28T00:07:36;2.93;;;2.17;;
21012;SDS011;10664;53.582;9.712;2023-02-28T00:10:03;2.23;;;1.90;;
21012;SDS011;10664;53.582;9.712;2023-02-28T00:12:29;2.37;;;1.77;;
21012;SDS011;10664;53.582;9.712;2023-02-28T00:14:55;2.07;;;1.87;;
21012;SDS011;10664;53.582;9.712;2023-02-28T00:17:21;2.97;;;2.07;;
21012;SDS011;10664;53.582;9.712;2023-02-28T00:19:48;2.70;;;2.07;;
21012;SDS011;10664;53.582;9.712;2023-02-28T00:22:15;3.93;;;2.30;;
21012;SDS011;10664;53.582;9.712;2023-02-28T00:24:41;2.33;;;2.03;;
21012;SDS011;10664;53.582;9.712;2023-02-28T00:27:07;2.23;;;1.80;;
21012;SDS011;10664;53.582;9.712;2023-02-28T00:29:33;2.30;;;2.10;;
21012;SDS011;10664;53.582;9.712;2023-02-28T00:31:59;2.43;;;2.00;;
21012;SDS011;10664;53.582;9.712;2023-02-28T00:34:25;2.47;;;2.20;;
21012;SDS011;10664;53.582;9.712;2023-02-28T00:36:51;2.83;;;2.47;;
21012;SDS011;10664;53.582;9.712;2023-02-28T00:39:16;2.60;;;2.40;;
21012;SDS011;10664;53.582;9.712;2023-02-28T00:41:42;3.57;;;2.70;;
21012;SDS011;10664;53.582;9.712;2023-02-28T00:44:08;4.17;;;2.80;;
21012;SDS011;10664;53.582;9.712;2023-02-28T00:46:34;3.93;;;2.77;;
21012;SDS011;10664;53.582;9.712;2023-02-28T00:49:00;3.50;;;2.80;;
21012;SDS011;10664;53.582;9.712;2023-02-28T00:51:26;4.07;;;2.37;;
21012;SDS011;10664;53.582;9.712;2023-02-28T00:53:52;2.63;;;2.40;;
21012;SDS011;10664;53.582;9.712;2023-02-28T00:56:19;2.40;;;2.20;;
21012;SDS011;10664;53.582;9.712;2023-02-28T00:58:44;3.07;;;2.50;;
21012;SDS011;10664;53.582;9.712;2023-02-28T01:01:10;3.10;;;2.37;;
21012;SDS011;10664;53.582;9.712;2023-02-28T01:03:36;2.40;;;2.20;;
21012;SDS011;10664;53.582;9.712;2023-02-28T01:06:03;2.70;;;2.00;;
21012;SDS011;10664;53.582;9.712;2023-02-28T01:08:29;2.73;;;2.40;;
21012;SDS011;10664;53.582;9.712;2023-02-28T01:10:55;2.80;;;2.10;;
21012;SDS011;10664;53.582;9.712;2023-02-28T01:13:21;2.13;;;1.90;;
21012;SDS011;10664;53.582;9.712;2023-02-28T01:15:52;2.30;;;2.10;;
21012;SDS011;10664;53.582;9.712;2023-02-28T01:18:18;3.70;;;2.37;;
21012;SDS011;10664;53.582;9.712;2023-02-28T01:20:44;2.43;;;2.23;;
21012;SDS011;10664;53.582;9.712;2023-02-28T01:23:11;2.10;;;1.90;;
21012;SDS011;10664;53.582;9.712;2023-02-28T01:25:37;2.40;;;2.20;;
21012;SDS011;10664;53.582;9.712;2023-02-28T01:28:03;3.40;;;2.40;;
21012;SDS011;10664;53.582;9.712;2023-02-28T01:30:29;2.10;;;1.90;;
21012;SDS011;10664;53.582;9.712;2023-02-28T01:32:55;3.00;;;2.20;;
21012;SDS011;10664;53.582;9.712;2023-02-28T01:35:21;2.60;;;2.40;;
21012;SDS011;10664;53.582;9.712;2023-02-28T01:37:47;2.43;;;2.17;;
21012;SDS011;10664;53.582;9.712;2023-02-28T01:40:13;2.23;;;2.03;;
21012;SDS011;10664;53.582;9.712;2023-02-28T01:42:39;3.00;;;2.30;;
21012;SDS011;10664;53.582;9.712;2023-02-28T01:45:22;2.60;;;2.40;;
21012;SDS011;10664;53.582;9.712;2023-02-28T01:47:50;2.60;;;2.13;;
21012;SDS011;10664;53.582;9.712;2023-02-28T01:50:21;2.43;;;2.23;;
21012;SDS011;10664;53.582;9.712;2023-02-28T01:52:47;3.23;;;2.23;;
21012;SDS011;10664;53.582;9.712;2023-02-28T01:55:14;2.80;;;2.10;;
21012;SDS011;10664;53.582;9.712;2023-02-28T01:57:41;2.37;;;2.17;;
21012;SDS011;10664;53.582;9.712;2023-02-28T02:02:34;2.37;;;2.17;;
21012;SDS011;10664;53.582;9.712;2023-02-28T02:05:15;4.27;;;2.30;;
21012;SDS011;10664;53.582;9.712;2023-02-28T02:07:42;3.10;;;2.33;;
21012;SDS011;10664;53.582;9.712;2023-02-28T02:15:16;2.60;;;2.40;;
21012;SDS011;10664;53.582;9.712;2023-02-28T02:17:47;3.03;;;2.70;;
21012;SDS011;10664;53.582;9.712;2023-02-28T02:23:01;4.13;;;2.87;;
21012;SDS011;10664;53.582;9.712;2023-02-28T02:28:06;3.53;;;2.90;;
21012;SDS011;10664;53.582;9.712;2023-02-28T02:35:52;3.73;;;2.93;;
21012;SDS011;10664;53.582;9.712;2023-02-28T02:38:27;3.27;;;2.60;;
21012;SDS011;10664;53.582;9.712;2023-02-28T02:40:58;4.10;;;3.20;;
21012;SDS011;10664;53.582;9.712;2023-02-28T02:43:29;2.70;;;2.50;;
21012;SDS011;10664;53.582;9.712;2023-02-28T02:46:20;2.67;;;2.47;;
21012;SDS011;10664;53.582;9.712;2023-02-28T02:48:44;3.13;;;2.83;;
21012;SDS011;10664;53.582;9.712;2023-02-28T02:51:12;2.73;;;2.30;;
21012;SDS011;10664;53.582;9.712;2023-02-28T02:53:56;3.77;;;3.37;;
21012;SDS011;10664;53.582;9.712;2023-02-28T02:56:25;3.47;;;3.07;;
21012;SDS011;10664;53.582;9.712;2023-02-28T02:58:52;4.03;;;3.10;;
21012;SDS011;10664;53.582;9.712;2023-02-28T03:01:20;3.17;;;2.80;;
21012;SDS011;10664;53.582;9.712;2023-02-28T03:03:54;3.37;;;3.07;;
21012;SDS011;10664;53.582;9.712;2023-02-28T03:06:21;3.53;;;3.23;;
21012;SDS011;10664;53.582;9.712;2023-02-28T03:08:47;2.97;;;2.60;;
21012;SDS011;10664;53.582;9.712;2023-02-28T03:11:14;2.93;;;2.63;;
21012;SDS011;10664;53.582;9.712;2023-02-28T03:16:12;3.20;;;2.87;;
21012;SDS011;10664;53.582;9.712;2023-02-28T03:23:47;2.80;;;2.47;;
21012;SDS011;10664;53.582;9.712;2023-02-28T03:26:20;2.53;;;2.30;;
21012;SDS011;10664;53.582;9.712;2023-02-28T03:28:50;3.40;;;2.63;;
21012;SDS011;10664;53.582;9.712;2023-02-28T03:31:22;2.37;;;2.17;;
21012;SDS011;10664;53.582;9.712;2023-02-28T03:33:53;2.33;;;2.13;;
21012;SDS011;10664;53.582;9.712;2023-02-28T03:36:25;2.30;;;1.90;;
21012;SDS011;10664;53.582;9.712;2023-02-28T03:38:58;2.73;;;2.07;;
21012;SDS011;10664;53.582;9.712;2023-02-28T03:41:38;2.23;;;2.03;;
21012;SDS011;10664;53.582;9.712;2023-02-28T03:44:11;2.33;;;2.13;;
21012;SDS011;10664;53.582;9.712;2023-02-28T03:46:40;3.27;;;2.00;;
21012;SDS011;10664;53.582;9.712;2023-02-28T03:49:27;2.87;;;2.20;;
21012;SDS011;10664;53.582;9.712;2023-02-28T03:51:54;2.53;;;2.10;;
21012;SDS011;10664;53.582;9.712;2023-02-28T03:54:23;2.40;;;2.20;;
21012;SDS011;10664;53.582;9.712;2023-02-28T03:56:52;2.67;;;2.03;;
21012;SDS011;10664;53.582;9.712;2023-02-28T04:01:53;2.63;;;2.33;;
21012;SDS011;10664;53.582;9.712;2023-02-28T04:04:20;3.50;;;2.27;;
21012;SDS011;10664;53.582;9.712;2023-02-28T04:06:49;2.50;;;2.03;;
21012;SDS011;10664;53.582;9.712;2023-02-28T04:09:15;3.27;;;2.13;;
21012;SDS011;10664;53.582;9.712;2023-02-28T04:11:46;3.20;;;2.10;;
21012;SDS011;10664;53.582;9.712;2023-02-28T04:14:14;2.43;;;2.20;;
21012;SDS011;10664;53.582;9.712;2023-02-28T04:16:40;2.60;;;2.20;;
21012;SDS011;10664;53.582;9.712;2023-02-28T04:19:07;2.40;;;2.20;;
21012;SDS011;10664;53.582;9.712;2023-02-28T04:21:38;2.40;;;2.20;;
21012;SDS011;10664;53.582;9.712;2023-02-28T04:24:04;3.17;;;2.27;;
21012;SDS011;10664;53.582;9.712;2023-02-28T04:26:31;2.53;;;2.33;;
21012;SDS011;10664;53.582;9.712;2023-02-28T04:28:57;2.60;;;2.40;;
21012;SDS011;10664;53.582;9.712;2023-02-28T04:31:24;2.33;;;2.13;;
21012;SDS011;10664;53.582;9.712;2023-02-28T04:33:50;2.60;;;2.40;;
21012;SDS011;10664;53.582;9.712;2023-02-28T04:36:16;3.10;;;2.47;;
21012;SDS011;10664;53.582;9.712;2023-02-28T04:38:45;2.77;;;2.30;;
21012;SDS011;10664;53.582;9.712;2023-02-28T04:41:12;2.43;;;2.23;;
21012;SDS011;10664;53.582;9.712;2023-02-28T04:43:38;2.47;;;2.27;;
21012;SDS011;10664;53.582;9.712;2023-02-28T04:46:04;2.73;;;2.20;;
21012;SDS011;10664;53.582;9.712;2023-02-28T04:48:32;2.70;;;2.50;;
21012;SDS011;10664;53.582;9.712;2023-02-28T04:51:05;2.30;;;2.10;;
21012;SDS011;10664;53.582;9.712;2023-02-28T04:53:31;2.77;;;2.50;;
21012;SDS011;10664;53.582;9.712;2023-02-28T04:55:58;2.50;;;2.30;;
21012;SDS011;10664;53.582;9.712;2023-02-28T04:58:24;3.80;;;2.63;;
21012;SDS011;10664;53.582;9.712;2023-02-28T05:00:53;3.33;;;2.83;;
21012;SDS011;10664;53.582;9.712;2023-02-28T05:03:20;3.37;;;2.50;;
21012;SDS011;10664;53.582;9.712;2023-02-28T05:05:47;3.47;;;3.10;;
21012;SDS011;10664;53.582;9.712;2023-02-28T05:08:13;2.57;;;2.23;;
21012;SDS011;10664;53.582;9.712;2023-02-28T05:10:39;2.77;;;2.50;;
21012;SDS011;10664;53.582;9.712;2023-02-28T05:13:05;3.03;;;2.67;;
21012;SDS011;10664;53.582;9.712;2023-02-28T05:15:31;3.70;;;2.63;;
21012;SDS011;10664;53.582;9.712;2023-02-28T05:17:57;3.50;;;2.30;;
21012;SDS011;10664;53.582;9.712;2023-02-28T05:20:23;2.70;;;2.50;;
21012;SDS011;10664;53.582;9.712;2023-02-28T05:22:49;3.77;;;2.57;;
21012;SDS011;10664;53.582;9.712;2023-02-28T05:25:17;2.83;;;2.53;;
21012;SDS011;10664;53.582;9.712;2023-02-28T05:27:43;2.93;;;2.63;;
21012;SDS011;10664;53.582;9.712;2023-02-28T05:30:10;2.87;;;2.50;;
21012;SDS011;10664;53.582;9.712;2023-02-28T05:32:37;3.77;;;2.50;;
21012;SDS011;10664;53.582;9.712;2023-02-28T05:35:03;3.73;;;2.70;;
21012;SDS011;10664;53.582;9.712;2023-02-28T05:37:30;3.33;;;3.00;;
21012;SDS011;10664;53.582;9.712;2023-02-28T05:39:56;4.43;;;2.60;;
21012;SDS011;10664;53.582;9.712;2023-02-28T05:42:22;3.17;;;2.73;;
21012;SDS011;10664;53.582;9.712;2023-02-28T05:44:48;4.87;;;3.40;;
21012;SDS011;10664;53.582;9.712;2023-02-28T05:47:14;5.10;;;3.57;;
21012;SDS011;10664;53.582;9.712;2023-02-28T05:49:40;8.33;;;4.30;;
21012;SDS011;10664;53.582;9.712;2023-02-28T05:52:06;7.37;;;4.37;;
21012;SDS011;10664;53.582;9.712;2023-02-28T05:54:32;7.33;;;5.03;;
21012;SDS011;10664;53.582;9.712;2023-02-28T05:56:58;8.10;;;4.83;;
21012;SDS011;10664;53.582;9.712;2023-02-28T05:59:24;8.97;;;5.13;;
21012;SDS011;10664;53.582;9.712;2023-02-28T06:01:50;7.80;;;5.07;;
21012;SDS011;10664;53.582;9.712;2023-02-28T06:04:19;9.00;;;4.73;;
21012;SDS011;10664;53.582;9.712;2023-02-28T06:06:45;9.30;;;4.30;;
21012;SDS011;10664;53.582;9.712;2023-02-28T06:09:11;7.33;;;4.20;;
21012;SDS011;10664;53.582;9.712;2023-02-28T06:11:38;7.20;;;4.10;;
21012;SDS011;10664;53.582;9.712;2023-02-28T06:14:04;5.30;;;3.97;;
21012;SDS011;10664;53.582;9.712;2023-02-28T06:16:31;6.03;;;4.00;;
21012;SDS011;10664;53.582;9.712;2023-02-28T06:18:58;6.20;;;3.30;;
21012;SDS011;10664;53.582;9.712;2023-02-28T06:21:25;4.20;;;3.53;;
21012;SDS011;10664;53.582;9.712;2023-02-28T06:23:52;5.53;;;3.57;;
21012;SDS011;10664;53.582;9.712;2023-02-28T06:26:18;4.10;;;3.13;;
21012;SDS011;10664;53.582;9.712;2023-02-28T06:28:44;4.13;;;3.30;;
21012;SDS011;10664;53.582;9.712;2023-02-28T06:31:11;5.83;;;3.70;;
21012;SDS011;10664;53.582;9.712;2023-02-28T06:33:38;3.67;;;3.00;;
21012;SDS011;10664;53.582;9.712;2023-02-28T06:36:05;4.70;;;3.10;;
21012;SDS011;10664;53.582;9.712;2023-02-28T06:38:31;3.97;;;2.83;;
21012;SDS011;10664;53.582;9.712;2023-02-28T06:40:57;3.00;;;2.60;;
21012;SDS011;10664;53.582;9.712;2023-02-28T06:43:25;3.43;;;2.90;;
21012;SDS011;10664;53.582;9.712;2023-02-28T06:45:54;4.43;;;3.30;;
21012;SDS011;10664;53.582;9.712;2023-02-28T06:48:20;3.37;;;3.07;;
21012;SDS011;10664;53.582;9.712;2023-02-28T06:50:46;3.80;;;3.40;;
21012;SDS011;10664;53.582;9.712;2023-02-28T06:53:12;2.93;;;2.53;;
21012;SDS011;10664;53.582;9.712;2023-02-28T06:55:38;3.33;;;2.93;;
21012;SDS011;10664;53.582;9.712;2023-02-28T06:58:05;3.03;;;2.73;;
21012;SDS011;10664;53.582;9.712;2023-02-28T07:00:40;2.57;;;2.33;;
21012;SDS011;10664;53.582;9.712;2023-02-28T07:03:06;3.23;;;2.60;;
21012;SDS011;10664;53.582;9.712;2023-02-28T07:05:34;3.80;;;2.57;;
21012;SDS011;10664;53.582;9.712;2023-02-28T07:08:00;2.50;;;2.30;;
21012;SDS011;10664;53.582;9.712;2023-02-28T07:10:26;3.10;;;2.80;;
21012;SDS011;10664;53.582;9.712;2023-02-28T07:12:52;3.47;;;2.50;;
21012;SDS011;10664;53.582;9.712;2023-02-28T07:15:18;3.40;;;2.93;;
21012;SDS011;10664;53.582;9.712;2023-02-28T07:17:44;3.23;;;2.70;;
21012;SDS011;10664;53.582;9.712;2023-02-28T07:20:10;5.00;;;3.03;;
21012;SDS011;10664;53.582;9.712;2023-02-28T07:22:36;3.93;;;2.80;;
21012;SDS011;10664;53.582;9.712;2023-02-28T07:25:03;3.07;;;2.77;;
21012;SDS011;10664;53.582;9.712;2023-02-28T07:27:29;2.93;;;2.57;;
21012;SDS011;10664;53.582;9.712;2023-02-28T07:29:55;2.70;;;2.50;;
21012;SDS011;10664;53.582;9.712;2023-02-28T07:32:21;3.63;;;2.70;;
21012;SDS011;10664;53.582;9.712;2023-02-28T07:34:47;3.50;;;2.73;;
21012;SDS011;10664;53.582;9.712;2023-02-28T07:37:14;4.40;;;2.93;;
21012;SDS011;10664;53.582;9.712;2023-02-28T07:39:40;4.77;;;3.07;;
21012;SDS011;10664;53.582;9.712;2023-02-28T07:42:08;3.87;;;2.57;;
21012;SDS011;10664;53.582;9.712;2023-02-28T07:44:36;2.70;;;2.50;;
21012;SDS011;10664;53.582;9.712;2023-02-28T07:47:05;4.87;;;2.63;;
21012;SDS011;10664;53.582;9.712;2023-02-28T07:49:31;3.43;;;2.33;;
21012;SDS011;10664;53.582;9.712;2023-02-28T07:51:57;2.83;;;2.53;;
21012;SDS011;10664;53.582;9.712;2023-02-28T07:54:23;2.70;;;2.40;;
21012;SDS011;10664;53.582;9.712;2023-02-28T07:56:49;3.93;;;2.70;;
21012;SDS011;10664;53.582;9.712;2023-02-28T07:59:15;3.53;;;2.50;;
21012;SDS011;10664;53.582;9.712;2023-02-28T08:01:41;2.73;;;2.50;;
21012;SDS011;10664;53.582;9.712;2023-02-28T08:04:09;3.00;;;2.47;;
21012;SDS011;10664;53.582;9.712;2023-02-28T08:06:35;3.30;;;2.30;;
21012;SDS011;10664;53.582;9.712;2023-02-28T08:09:01;3.00;;;2.70;;
21012;SDS011;10664;53.582;9.712;2023-02-28T08:11:27;3.57;;;2.40;;
21012;SDS011;10664;53.582;9.712;2023-02-28T08:13:54;3.23;;;2.57;;
21012;SDS011;10664;53.582;9.712;2023-02-28T08:16:20;4.10;;;2.60;;
21012;SDS011;10664;53.582;9.712;2023-02-28T08:18:47;3.40;;;2.50;;
21012;SDS011;10664;53.582;9.712;2023-02-28T08:21:14;2.60;;;2.20;;
21012;SDS011;10664;53.582;9.712;2023-02-28T08:23:40;3.17;;;2.53;;
21012;SDS011;10664;53.582;9.712;2023-02-28T08:26:06;3.03;;;2.73;;
21012;SDS011;10664;53.582;9.712;2023-02-28T08:28:32;2.93;;;2.63;;
21012;SDS011;10664;53.582;9.712;2023-02-28T08:30:58;3.13;;;2.83;;
21012;SDS011;10664;53.582;9.712;2023-02-28T08:33:24;3.47;;;2.30;;
21012;SDS011;10664;53.582;9.712;2023-02-28T08:35:54;4.10;;;2.93;;
21012;SDS011;10664;53.582;9.712;2023-02-28T08:38:20;3.23;;;2.60;;
21012;SDS011;10664;53.582;9.712;2023-02-28T08:40:46;2.60;;;2.40;;
21012;SDS011;10664;53.582;9.712;2023-02-28T08:43:12;2.47;;;2.23;;
21012;SDS011;10664;53.582;9.712;2023-02-28T08:45:38;2.50;;;2.30;;
21012;SDS011;10664;53.582;9.712;2023-02-28T08:48:05;3.03;;;2.17;;
21012;SDS011;10664;53.582;9.712;2023-02-28T08:50:31;2.53;;;2.30;;
21012;SDS011;10664;53.582;9.712;2023-02-28T08:52:57;2.77;;;2.47;;
21012;SDS011;10664;53.582;9.712;2023-02-28T08:55:23;2.87;;;2.13;;
21012;SDS011;10664;53.582;9.712;2023-02-28T08:57:49;2.73;;;2.53;;
21012;SDS011;10664;53.582;9.712;2023-02-28T09:00:15;2.10;;;1.90;;
21012;SDS011;10664;53.582;9.712;2023-02-28T09:02:41;2.57;;;2.37;;
21012;SDS011;10664;53.582;9.712;2023-02-28T09:05:08;2.47;;;2.20;;
21012;SDS011;10664;53.582;9.712;2023-02-28T09:07:34;2.60;;;2.33;;
21012;SDS011;10664;53.582;9.712;2023-02-28T09:10:00;2.60;;;2.40;;
21012;SDS011;10664;53.582;9.712;2023-02-28T09:12:27;3.33;;;2.40;;
21012;SDS011;10664;53.582;9.712;2023-02-28T09:14:53;2.40;;;2.07;;
21012;SDS011;10664;53.582;9.712;2023-02-28T09:17:19;2.13;;;1.77;;
21012;SDS011;10664;53.582;9.712;2023-02-28T09:19:47;3.30;;;2.30;;
21012;SDS011;10664;53.582;9.712;2023-02-28T09:22:13;2.33;;;1.87;;
21012;SDS011;10664;53.582;9.712;2023-02-28T09:24:40;3.07;;;1.83;;
21012;SDS011;10664;53.582;9.712;2023-02-28T09:27:06;3.33;;;2.23;;
21012;SDS011;10664;53.582;9.712;2023-02-28T09:29:32;2.37;;;2.07;;
21012;SDS011;10664;53.582;9.712;2023-02-28T09:31:59;2.27;;;1.80;;
21012;SDS011;10664;53.582;9.712;2023-02-28T09:34:25;2.10;;;1.90;;
21012;SDS011;10664;53.582;9.712;2023-02-28T09:36:51;2.10;;;1.80;;
21012;SDS011;10664;53.582;9.712;2023-02-28T09:39:20;2.10;;;1.90;;
21012;SDS011;10664;53.582;9.712;2023-02-28T09:41:47;2.40;;;2.10;;
21012;SDS011;10664;53.582;9.712;2023-02-28T09:46:44;1.90;;;1.70;;
21012;SDS011;10664;53.582;9.712;2023-02-28T09:49:12;1.80;;;1.70;;
21012;SDS011;10664;53.582;9.712;2023-02-28T09:51:43;2.70;;;1.97;;
21012;SDS011;10664;53.582;9.712;2023-02-28T09:54:13;2.17;;;1.90;;
21012;SDS011;10664;53.582;9.712;2023-02-28T09:56:44;2.70;;;2.23;;
21012;SDS011;10664;53.582;9.712;2023-02-28T09:59:17;2.30;;;2.10;;
21012;SDS011;10664;53.582;9.712;2023-02-28T10:04:34;2.00;;;1.90;;
21012;SDS011;10664;53.582;9.712;2023-02-28T10:07:01;1.83;;;1.73;;
21012;SDS011;10664;53.582;9.712;2023-02-28T10:09:32;1.90;;;1.80;;
21012;SDS011;10664;53.582;9.712;2023-02-28T10:12:00;1.93;;;1.83;;
21012;SDS011;10664;53.582;9.712;2023-02-28T10:14:28;2.20;;;2.00;;
21012;SDS011;10664;53.582;9.712;2023-02-28T10:16:56;2.13;;;1.93;;
21012;SDS011;10664;53.582;9.712;2023-02-28T10:19:40;1.77;;;1.67;;
21012;SDS011;10664;53.582;9.712;2023-02-28T10:22:15;1.67;;;1.57;;
21012;SDS011;10664;53.582;9.712;2023-02-28T10:24:46;1.97;;;1.77;;
21012;SDS011;10664;53.582;9.712;2023-02-28T10:29:43;1.70;;;1.60;;
21012;SDS011;10664;53.582;9.712;2023-02-28T10:32:09;1.90;;;1.67;;
21012;SDS011;10664;53.582;9.712;2023-02-28T10:34:36;1.70;;;1.60;;
21012;SDS011;10664;53.582;9.712;2023-02-28T10:37:03;1.77;;;1.50;;
21012;SDS011;10664;53.582;9.712;2023-02-28T10:39:43;1.90;;;1.40;;
21012;SDS011;10664;53.582;9.712;2023-02-28T10:42:21;2.43;;;2.00;;
21012;SDS011;10664;53.582;9.712;2023-02-28T10:44:47;2.10;;;1.90;;
21012;SDS011;10664;53.582;9.712;2023-02-28T10:47:17;2.33;;;1.83;;
21012;SDS011;10664;53.582;9.712;2023-02-28T10:49:49;2.63;;;1.80;;
21012;SDS011;10664;53.582;9.712;2023-02-28T10:52:33;2.10;;;1.90;;
21012;SDS011;10664;53.582;9.712;2023-02-28T10:58:00;2.33;;;1.80;;
21012;SDS011;10664;53.582;9.712;2023-02-28T11:00:26;2.30;;;2.10;;
21012;SDS011;10664;53.582;9.712;2023-02-28T11:02:57;2.60;;;1.87;;
21012;SDS011;10664;53.582;9.712;2023-02-28T11:07:53;2.20;;;2.00;;
21012;SDS011;10664;53.582;9.712;2023-02-28T11:10:20;2.13;;;1.90;;
21012;SDS011;10664;53.582;9.712;2023-02-28T11:12:46;2.60;;;2.40;;
21012;SDS011;10664;53.582;9.712;2023-02-28T11:17:59;2.00;;;1.80;;
21012;SDS011;10664;53.582;9.712;2023-02-28T11:20:26;2.07;;;1.90;;
21012;SDS011;10664;53.582;9.712;2023-02-28T11:22:53;2.73;;;1.77;;
21012;SDS011;10664;53.582;9.712;2023-02-28T11:25:26;2.60;;;1.87;;
21012;SDS011;10664;53.582;9.712;2023-02-28T11:27:56;2.33;;;2.07;;
21012;SDS011;10664;53.582;9.712;2023-02-28T11:32:49;1.80;;;1.70;;
21012;SDS011;10664;53.582;9.712;2023-02-28T11:35:21;2.13;;;1.93;;
21012;SDS011;10664;53.582;9.712;2023-02-28T11:37:49;2.20;;;2.00;;
21012;SDS011;10664;53.582;9.712;2023-02-28T11:40:15;1.90;;;1.70;;
21012;SDS011;10664;53.582;9.712;2023-02-28T11:43:01;1.80;;;1.70;;
21012;SDS011;10664;53.582;9.712;2023-02-28T11:48:15;2.10;;;1.70;;
21012;SDS011;10664;53.582;9.712;2023-02-28T11:56:18;1.67;;;1.50;;
21012;SDS011;10664;53.582;9.712;2023-02-28T11:58:53;1.50;;;1.40;;
21012;SDS011;10664;53.582;9.712;2023-02-28T12:04:24;1.70;;;1.60;;
21012;SDS011;10664;53.582;9.712;2023-02-28T12:11:53;1.90;;;1.70;;
21012;SDS011;10664;53.582;9.712;2023-02-28T12:17:18;1.50;;;1.40;;
21012;SDS011;10664;53.582;9.712;2023-02-28T12:20:00;2.10;;;1.60;;
21012;SDS011;10664;53.582;9.712;2023-02-28T12:22:30;1.50;;;1.40;;
21012;SDS011;10664;53.582;9.712;2023-02-28T12:27:25;1.40;;;1.30;;
21012;SDS011;10664;53.582;9.712;2023-02-28T12:30:03;1.70;;;1.60;;
21012;SDS011;10664;53.582;9.712;2023-02-28T12:32:33;1.90;;;1.53;;
21012;SDS011;10664;53.582;9.712;2023-02-28T12:35:02;1.50;;;1.40;;
21012;SDS011;10664;53.582;9.712;2023-02-28T12:37:30;1.50;;;1.40;;
21012;SDS011;10664;53.582;9.712;2023-02-28T12:40:00;1.50;;;1.40;;
21012;SDS011;10664;53.582;9.712;2023-02-28T12:42:31;1.60;;;1.50;;
21012;SDS011;10664;53.582;9.712;2023-02-28T12:45:02;1.57;;;1.47;;
21012;SDS011;10664;53.582;9.712;2023-02-28T12:47:28;1.33;;;1.30;;
21012;SDS011;10664;53.582;9.712;2023-02-28T12:50:07;1.37;;;1.27;;
21012;SDS011;10664;53.582;9.712;2023-02-28T13:00:16;1.43;;;1.33;;
21012;SDS011;10664;53.582;9.712;2023-02-28T13:05:26;1.60;;;1.50;;
21012;SDS011;10664;53.582;9.712;2023-02-28T13:08:03;1.57;;;1.47;;
21012;SDS011;10664;53.582;9.712;2023-02-28T13:10:43;1.60;;;1.50;;
21012;SDS011;10664;53.582;9.712;2023-02-28T13:13:14;1.70;;;1.60;;
21012;SDS011;10664;53.582;9.712;2023-02-28T13:15:40;1.33;;;1.23;;
21012;SDS011;10664;53.582;9.712;2023-02-28T13:18:24;1.30;;;1.20;;
21012;SDS011;10664;53.582;9.712;2023-02-28T13:20:53;1.67;;;1.57;;
21012;SDS011;10664;53.582;9.712;2023-02-28T13:26:04;1.60;;;1.50;;
21012;SDS011;10664;53.582;9.712;2023-02-28T13:31:14;1.50;;;1.40;;
21012;SDS011;10664;53.582;9.712;2023-02-28T13:39:03;2.00;;;1.60;;
21012;SDS011;10664;53.582;9.712;2023-02-28T13:44:00;1.77;;;1.67;;
21012;SDS011;10664;53.582;9.712;2023-02-28T13:46:26;2.80;;;1.60;;
21012;SDS011;10664;53.582;9.712;2023-02-28T13:48:52;1.70;;;1.60;;
21012;SDS011;10664;53.582;9.712;2023-02-28T13:54:07;1.80;;;1.70;;
21012;SDS011;10664;53.582;9.712;2023-02-28T13:56:42;1.77;;;1.67;;
21012;SDS011;10664;53.582;9.712;2023-02-28T13:59:16;1.77;;;1.67;;
21012;SDS011;10664;53.582;9.712;2023-02-28T14:04:27;2.00;;;1.80;;
21012;SDS011;10664;53.582;9.712;2023-02-28T14:06:58;1.83;;;1.73;;
21012;SDS011;10664;53.582;9.712;2023-02-28T14:09:32;1.60;;;1.43;;
21012;SDS011;10664;53.582;9.712;2023-02-28T14:17:14;1.70;;;1.60;;
21012;SDS011;10664;53.582;9.712;2023-02-28T14:19:41;2.13;;;1.93;;
21012;SDS011;10664;53.582;9.712;2023-02-28T14:29:45;1.60;;;1.50;;
21012;SDS011;10664;53.582;9.712;2023-02-28T14:32:27;1.50;;;1.40;;
21012;SDS011;10664;53.582;9.712;2023-02-28T14:37:24;1.67;;;1.50;;
21012;SDS011;10664;53.582;9.712;2023-02-28T14:39:51;1.90;;;1.70;;
21012;SDS011;10664;53.582;9.712;2023-02-28T14:42:29;1.63;;;1.50;;
21012;SDS011;10664;53.582;9.712;2023-02-28T14:44:56;1.73;;;1.63;;
21012;SDS011;10664;53.582;9.712;2023-02-28T14:47:23;1.67;;;1.57;;
21012;SDS011;10664;53.582;9.712;2023-02-28T14:49:51;1.77;;;1.67;;
21012;SDS011;10664;53.582;9.712;2023-02-28T14:52:21;1.53;;;1.43;;
21012;SDS011;10664;53.582;9.712;2023-02-28T14:54:52;1.90;;;1.77;;
21012;SDS011;10664;53.582;9.712;2023-02-28T14:57:22;1.50;;;1.40;;
21012;SDS011;10664;53.582;9.712;2023-02-28T14:59:56;2.07;;;1.70;;
21012;SDS011;10664;53.582;9.712;2023-02-28T15:02:23;1.90;;;1.77;;
21012;SDS011;10664;53.582;9.712;2023-02-28T15:04:56;2.30;;;1.87;;
21012;SDS011;10664;53.582;9.712;2023-02-28T15:07:22;1.70;;;1.60;;
21012;SDS011;10664;53.582;9.712;2023-02-28T15:10:07;1.70;;;1.60;;
21012;SDS011;10664;53.582;9.712;2023-02-28T15:12:34;2.07;;;1.87;;
21012;SDS011;10664;53.582;9.712;2023-02-28T15:15:00;1.60;;;1.50;;
21012;SDS011;10664;53.582;9.712;2023-02-28T15:17:26;1.83;;;1.73;;
21012;SDS011;10664;53.582;9.712;2023-02-28T15:19:52;1.80;;;1.70;;
21012;SDS011;10664;53.582;9.712;2023-02-28T15:22:20;2.13;;;1.70;;
21012;SDS011;10664;53.582;9.712;2023-02-28T15:24:48;2.50;;;1.70;;
21012;SDS011;10664;53.582;9.712;2023-02-28T15:27:20;1.90;;;1.80;;
21012;SDS011;10664;53.582;9.712;2023-02-28T15:29:47;2.13;;;1.63;;
21012;SDS011;10664;53.582;9.712;2023-02-28T15:32:26;2.50;;;1.63;;
21012;SDS011;10664;53.582;9.712;2023-02-28T15:34:53;1.70;;;1.60;;
21012;SDS011;10664;53.582;9.712;2023-02-28T15:39:51;1.90;;;1.70;;
21012;SDS011;10664;53.582;9.712;2023-02-28T15:42:21;1.80;;;1.60;;
21012;SDS011;10664;53.582;9.712;2023-02-28T15:44:47;1.60;;;1.50;;
21012;SDS011;10664;53.582;9.712;2023-02-28T15:47:16;2.03;;;1.70;;
21012;SDS011;10664;53.582;9.712;2023-02-28T15:50:17;1.77;;;1.67;;
21012;SDS011;10664;53.582;9.712;2023-02-28T15:55:19;1.80;;;1.70;;
21012;SDS011;10664;53.582;9.712;2023-02-28T15:57:45;1.70;;;1.60;;
21012;SDS011;10664;53.582;9.712;2023-02-28T16:00:13;1.70;;;1.60;;
21012;SDS011;10664;53.582;9.712;2023-02-28T16:02:39;1.93;;;1.73;;
21012;SDS011;10664;53.582;9.712;2023-02-28T16:07:35;1.70;;;1.60;;
21012;SDS011;10664;53.582;9.712;2023-02-28T16:10:01;2.00;;;1.80;;
21012;SDS011;10664;53.582;9.712;2023-02-28T16:12:28;1.90;;;1.80;;
21012;SDS011;10664;53.582;9.712;2023-02-28T16:14:55;1.70;;;1.60;;
21012;SDS011;10664;53.582;9.712;2023-02-28T16:17:26;2.20;;;2.00;;
21012;SDS011;10664;53.582;9.712;2023-02-28T16:19:52;2.00;;;1.80;;
21012;SDS011;10664;53.582;9.712;2023-02-28T16:22:18;1.70;;;1.60;;
21012;SDS011;10664;53.582;9.712;2023-02-28T16:24:44;2.00;;;1.80;;
21012;SDS011;10664;53.582;9.712;2023-02-28T16:30:06;2.20;;;1.67;;
21012;SDS011;10664;53.582;9.712;2023-02-28T16:32:34;1.70;;;1.60;;
21012;SDS011;10664;53.582;9.712;2023-02-28T16:35:01;1.80;;;1.70;;
21012;SDS011;10664;53.582;9.712;2023-02-28T16:37:27;1.87;;;1.70;;
21012;SDS011;10664;53.582;9.712;2023-02-28T16:39:53;2.33;;;1.83;;
21012;SDS011;10664;53.582;9.712;2023-02-28T16:42:23;1.77;;;1.67;;
21012;SDS011;10664;53.582;9.712;2023-02-28T16:47:50;2.47;;;1.80;;
21012;SDS011;10664;53.582;9.712;2023-02-28T16:50:17;1.93;;;1.80;;
21012;SDS011;10664;53.582;9.712;2023-02-28T16:52:44;1.70;;;1.57;;
21012;SDS011;10664;53.582;9.712;2023-02-28T16:55:10;2.00;;;1.77;;
21012;SDS011;10664;53.582;9.712;2023-02-28T16:57:36;2.10;;;1.90;;
21012;SDS011;10664;53.582;9.712;2023-02-28T17:00:03;2.57;;;2.07;;